首页
METAR-TAF:

METAR-TAF

机场 :

凯奇凯梅特, 匈牙利

纬度: 46-55N, 经度: 019-45E, 海拔: 113米

当前天气观测

该预报发布于36分钟前的19:15 UTC
风速2节,风向
温度 4°C
湿度 56%
气压 1013 hPa
能见度10公里或以上
1500米以下无云,无积雨云

METAR: LHKE 021915Z 18002KT CAVOK 04/M04 Q1013 R12/01//95 NOSIG RMK BLU

时间: 21:51 (19:51 UTC)

预报

该预报发布于2小时和36分钟前的17:15 UTC
预报有效从02日的 18点(UTC)到 03日的 03点(UTC)
风速5节,风向南转南东
能见度10公里或以上
1500米以下无云,无积雨云

TAF: LHKE 021715Z 0218/0303 16005KT CAVOK

超过4000个机场的气象观测和天气预报(METAR&TAF报告)。

可查询的气象台以黄色和红色小点在地图上表示。

将鼠标移到小点上方,可查看气象台名称。

然后点击查看天气观测和预报。

如需切换地图:点击带黑十字的绿色按钮放大地图;点击带横线的绿色按钮缩小地图;或者点击绿色箭头查看邻近地区的地图。


METAR-TAF: